Time;durP1;ratioP1;P1;durP2;ratioP2;P2;SDS_P1;SDS_P2;PMS_P1;PMS_P2;Temp;Humidity;BMP_temperature;BMP_pressure;BME280_temperature;BME280_humidity;BME280_pressure;Samples;Min_cycle;Max_cycle;Signal;HPM_P1;HPM_P2
2023/06/13 00:02:07;;;;;;;11.57;6.80;;;18.10;53.70;;;;;;5031498;28;20029;-64
2023/06/13 00:04:33;;;;;;;9.93;6.10;;;18.10;53.60;;;;;;5012012;28;20038;-63
2023/06/13 00:06:58;;;;;;;9.77;6.82;;;18.10;53.60;;;;;;5024706;28;20026;-62
2023/06/13 00:09:26;;;;;;;12.45;6.78;;;18.00;53.60;;;;;;5030582;28;20053;-64
2023/06/13 00:11:52;;;;;;;9.55;7.00;;;18.10;53.50;;;;;;5022076;28;20044;-62
2023/06/13 00:14:19;;;;;;;8.88;6.30;;;18.00;53.50;;;;;;5027035;28;20049;-62
2023/06/13 00:16:50;;;;;;;12.55;6.53;;;17.90;53.70;;;;;;5031157;28;20034;-63
2023/06/13 00:19:16;;;;;;;9.15;6.13;;;17.90;54.00;;;;;;5013263;28;20168;-62
2023/06/13 00:21:41;;;;;;;12.15;6.47;;;17.80;54.10;;;;;;5009042;28;20458;-62
2023/06/13 00:24:07;;;;;;;8.57;6.70;;;17.70;54.00;;;;;;5030928;28;20044;-62
2023/06/13 00:26:33;;;;;;;10.27;6.90;;;17.60;54.20;;;;;;5028229;28;20033;-62
2023/06/13 00:28:59;;;;;;;12.10;7.30;;;17.60;54.10;;;;;;5020254;28;20037;-62
2023/06/13 00:31:29;;;;;;;9.55;7.03;;;17.60;54.10;;;;;;5012767;28;20034;-62
2023/06/13 00:33:58;;;;;;;9.23;6.57;;;17.50;54.00;;;;;;5031038;28;20507;-62
2023/06/13 00:36:25;;;;;;;12.57;6.88;;;17.50;54.10;;;;;;5021464;28;20526;-66
2023/06/13 00:38:51;;;;;;;9.00;6.80;;;17.50;53.90;;;;;;5022975;28;20117;-62
2023/06/13 00:41:17;;;;;;;9.35;6.95;;;17.50;54.30;;;;;;5031062;28;20472;-62
2023/06/13 00:43:43;;;;;;;9.93;7.10;;;17.50;54.10;;;;;;5051331;22;20045;-62
2023/06/13 00:46:09;;;;;;;10.77;7.80;;;17.60;53.90;;;;;;5012106;28;20034;-62
2023/06/13 00:48:36;;;;;;;10.50;7.72;;;17.50;54.10;;;;;;5040418;28;20033;-62
2023/06/13 00:51:02;;;;;;;11.15;7.97;;;17.60;53.90;;;;;;5050870;28;20039;-62
2023/06/13 00:53:31;;;;;;;10.18;7.57;;;17.50;54.10;;;;;;5033561;28;20042;-63
2023/06/13 00:55:57;;;;;;;10.85;7.68;;;17.40;54.50;;;;;;5025904;28;20029;-62
2023/06/13 00:58:23;;;;;;;12.50;7.90;;;17.40;54.30;;;;;;5033348;28;20040;-62
2023/06/13 01:00:52;;;;;;;13.68;7.82;;;17.20;54.70;;;;;;5029681;28;20033;-62
2023/06/13 01:03:19;;;;;;;11.95;8.18;;;17.20;54.80;;;;;;5033900;28;20435;-63
2023/06/13 01:05:46;;;;;;;11.75;8.27;;;17.20;54.70;;;;;;5033607;28;20053;-62
2023/06/13 01:08:16;;;;;;;15.05;8.88;;;17.30;54.70;;;;;;5033342;28;20134;-63
2023/06/13 01:10:42;;;;;;;12.88;8.10;;;17.30;54.60;;;;;;5031996;28;20049;-62
2023/06/13 01:13:17;;;;;;;12.13;8.27;;;17.30;54.40;;;;;;5033884;28;20104;-63
2023/06/13 01:15:53;;;;;;;20.08;9.15;;;17.30;54.30;;;;;;5034260;28;20045;-62
2023/06/13 01:18:24;;;;;;;11.00;8.70;;;17.30;54.80;;;;;;5029290;28;20049;-62
2023/06/13 01:20:56;;;;;;;13.73;8.90;;;17.30;54.60;;;;;;5033636;28;20041;-62
2023/06/13 01:23:36;;;;;;;13.63;9.48;;;17.30;54.20;;;;;;5033743;28;20044;-62
2023/06/13 01:26:36;;;;;;;16.07;9.87;;;17.40;54.40;;;;;;5028032;28;20160;-62
2023/06/13 01:29:04;;;;;;;13.50;9.23;;;17.30;54.60;;;;;;5027239;28;20272;-62
2023/06/13 01:31:31;;;;;;;17.90;10.35;;;17.30;54.30;;;;;;5034052;28;20064;-62
2023/06/13 01:33:59;;;;;;;18.48;9.88;;;17.40;54.40;;;;;;5024252;28;20113;-63
2023/06/13 01:36:25;;;;;;;11.52;9.25;;;17.30;54.70;;;;;;5027869;28;20041;-63
2023/06/13 01:38:52;;;;;;;13.88;9.70;;;17.30;54.70;;;;;;5032972;28;20042;-62
2023/06/13 01:41:17;;;;;;;14.57;9.30;;;17.20;55.20;;;;;;5031182;28;20041;-62
2023/06/13 01:43:43;;;;;;;14.65;9.30;;;17.10;55.50;;;;;;5022109;28;20044;-63
2023/06/13 01:46:26;;;;;;;11.85;8.50;;;17.10;55.50;;;;;;5033191;28;20025;-62
2023/06/13 01:49:31;;;;;;;16.25;9.10;;;17.00;56.30;;;;;;5029264;28;20045;-63
2023/06/13 01:52:15;;;;;;;18.40;9.57;;;17.00;56.80;;;;;;5022708;28;20040;-62
2023/06/13 01:54:52;;;;;;;13.00;8.52;;;17.00;56.80;;;;;;5032321;28;20602;-62
2023/06/13 01:57:24;;;;;;;14.25;8.73;;;16.90;56.40;;;;;;5033127;28;20033;-63
2023/06/13 01:59:52;;;;;;;;;;;16.90;56.10;;;;;;5026124;28;20041;-62
2023/06/13 02:02:19;;;;;;;11.65;9.10;;;16.80;58.20;;;;;;5024888;28;19917;-63
2023/06/13 02:04:44;;;;;;;18.98;9.35;;;16.80;56.30;;;;;;5033034;28;20038;-62
2023/06/13 02:07:10;;;;;;;16.55;9.43;;;16.70;56.40;;;;;;5024920;28;20080;-63
2023/06/13 02:09:36;;;;;;;13.15;9.23;;;16.70;56.30;;;;;;5022882;28;20063;-62
2023/06/13 02:12:02;;;;;;;18.92;9.18;;;16.70;56.80;;;;;;5032771;28;20116;-63
2023/06/13 02:14:29;;;;;;;12.65;9.35;;;16.60;56.70;;;;;;5032895;28;20044;-62
2023/06/13 02:16:56;;;;;;;16.95;9.77;;;16.60;57.00;;;;;;5021741;28;20045;-62
2023/06/13 02:19:22;;;;;;;14.55;8.95;;;16.60;57.30;;;;;;5031984;28;20041;-62
2023/06/13 02:21:48;;;;;;;12.50;9.20;;;16.50;57.30;;;;;;5033183;28;20639;-62
2023/06/13 02:24:18;;;;;;;13.35;9.13;;;16.50;57.30;;;;;;5023528;28;20033;-62
2023/06/13 02:26:46;;;;;;;11.32;8.85;;;16.40;57.20;;;;;;5013412;28;20052;-62
2023/06/13 02:29:13;;;;;;;11.93;9.13;;;16.40;57.50;;;;;;5032405;28;20030;-62
2023/06/13 02:31:41;;;;;;;13.23;9.27;;;16.40;57.60;;;;;;5033022;28;20041;-62
2023/06/13 02:34:07;;;;;;;16.65;9.35;;;16.40;57.50;;;;;;5021921;28;20045;-62
2023/06/13 02:36:32;;;;;;;12.55;9.00;;;16.30;57.80;;;;;;5027933;28;20037;-62
2023/06/13 02:39:02;;;;;;;12.35;8.98;;;16.30;57.60;;;;;;5032180;28;20041;-62
2023/06/13 02:41:28;;;;;;;14.93;9.32;;;16.30;57.90;;;;;;5028016;28;20033;-62
2023/06/13 02:43:53;;;;;;;12.43;8.60;;;16.30;57.90;;;;;;5014158;28;20041;-62
2023/06/13 02:46:19;;;;;;;13.85;9.25;;;16.20;58.20;;;;;;5014452;28;20042;-62
2023/06/13 02:48:45;;;;;;;13.82;8.57;;;16.20;58.10;;;;;;5022001;28;20111;-62
2023/06/13 02:51:10;;;;;;;13.95;8.85;;;16.20;58.50;;;;;;5031550;28;20073;-62
2023/06/13 02:53:36;;;;;;;12.48;9.27;;;16.10;58.80;;;;;;5032078;28;20061;-62
2023/06/13 02:56:01;;;;;;;13.25;9.40;;;16.10;58.50;;;;;;5032169;28;20030;-63
2023/06/13 02:58:27;;;;;;;12.57;8.68;;;16.00;58.50;;;;;;5016111;28;20030;-62
2023/06/13 03:00:53;;;;;;;13.32;8.90;;;16.00;58.80;;;;;;5031917;28;20041;-62
2023/06/13 03:03:18;;;;;;;16.60;8.48;;;15.90;59.20;;;;;;5031768;28;20121;-62
2023/06/13 03:05:56;;;;;;;16.35;9.57;;;15.80;59.10;;;;;;5028337;28;20025;-62
2023/06/13 03:08:22;;;;;;;15.25;8.70;;;15.90;59.70;;;;;;5022350;28;20076;-62
2023/06/13 03:10:50;;;;;;;13.45;9.20;;;15.80;59.70;;;;;;5023789;28;20041;-63
2023/06/13 03:13:18;;;;;;;13.02;8.52;;;15.70;60.30;;;;;;5019865;28;20052;-62
2023/06/13 03:15:45;;;;;;;12.10;8.55;;;15.70;60.30;;;;;;5018941;28;20064;-62
2023/06/13 03:18:11;;;;;;;11.10;8.73;;;15.70;60.50;;;;;;5030871;28;20065;-62
2023/06/13 03:20:37;;;;;;;14.90;9.25;;;15.70;60.60;;;;;;5031222;28;20403;-62
2023/06/13 03:23:03;;;;;;;11.52;8.20;;;15.70;60.70;;;;;;5030877;28;20037;-63
2023/06/13 03:25:29;;;;;;;12.98;8.85;;;15.70;61.10;;;;;;5024232;28;20038;-62
2023/06/13 03:27:55;;;;;;;12.52;8.80;;;15.70;61.30;;;;;;5031251;28;20033;-62
2023/06/13 03:30:21;;;;;;;11.48;7.80;;;15.70;61.40;;;;;;5027917;28;20038;-62
2023/06/13 03:32:46;;;;;;;11.35;8.45;;;15.70;61.60;;;;;;5028550;28;20029;-62
2023/06/13 03:35:12;;;;;;;12.15;8.38;;;15.70;61.60;;;;;;5031351;28;20067;-62
2023/06/13 03:37:38;;;;;;;12.18;7.97;;;15.70;62.00;;;;;;5030672;28;20108;-62
2023/06/13 03:40:04;;;;;;;12.85;8.10;;;15.70;62.50;;;;;;5029058;28;20478;-62
2023/06/13 03:42:30;;;;;;;16.38;8.38;;;15.60;62.30;;;;;;5019960;28;20040;-62
2023/06/13 03:44:56;;;;;;;14.85;8.25;;;15.60;62.40;;;;;;5030938;28;20038;-62
2023/06/13 03:47:21;;;;;;;11.07;7.82;;;15.60;62.90;;;;;;5026815;28;20029;-62
2023/06/13 03:49:47;;;;;;;12.25;8.35;;;15.60;63.10;;;;;;5022952;28;20059;-62
2023/06/13 03:52:12;;;;;;;12.18;7.30;;;15.60;63.50;;;;;;5030984;28;20033;-62
2023/06/13 03:54:38;;;;;;;11.60;7.90;;;15.70;63.40;;;;;;5031168;28;20468;-62
2023/06/13 03:57:05;;;;;;;17.50;8.30;;;15.70;63.30;;;;;;5022851;28;20044;-62
2023/06/13 03:59:30;;;;;;;12.27;7.35;;;15.70;63.50;;;;;;5020421;28;20045;-62
2023/06/13 04:01:56;;;;;;;10.13;7.63;;;15.80;63.50;;;;;;5030936;28;20030;-62
2023/06/13 04:04:21;;;;;;;13.27;8.07;;;15.80;63.70;;;;;;5003634;28;20030;-62
2023/06/13 04:06:49;;;;;;;17.88;7.82;;;15.80;63.90;;;;;;5015318;28;20034;-62
2023/06/13 04:09:14;;;;;;;9.95;7.50;;;15.80;64.40;;;;;;5030934;28;20496;-62
2023/06/13 04:11:40;;;;;;;12.45;7.78;;;15.80;64.70;;;;;;5031336;28;20065;-62
2023/06/13 04:14:06;;;;;;;14.25;7.90;;;15.90;64.90;;;;;;5018757;28;20426;-63
2023/06/13 04:16:31;;;;;;;12.38;7.75;;;15.90;64.90;;;;;;5028933;28;20037;-62
2023/06/13 04:19:01;;;;;;;12.23;7.60;;;15.90;65.90;;;;;;5030760;28;20068;-62
2023/06/13 04:21:26;;;;;;;11.95;7.88;;;16.00;65.80;;;;;;5018618;28;20042;-63
2023/06/13 04:23:52;;;;;;;11.60;7.43;;;16.00;65.50;;;;;;5028653;28;20068;-62
2023/06/13 04:26:18;;;;;;;11.68;7.80;;;16.00;66.10;;;;;;5031089;28;20654;-62
2023/06/13 04:28:45;;;;;;;17.08;7.22;;;16.00;66.30;;;;;;5030940;28;20120;-62
2023/06/13 04:31:14;;;;;;;11.70;7.28;;;16.10;66.50;;;;;;5027097;28;20034;-63
2023/06/13 04:33:44;;;;;;;13.18;7.18;;;16.10;67.30;;;;;;5027764;28;20111;-62
2023/06/13 04:36:13;;;;;;;12.75;7.30;;;16.20;66.80;;;;;;5034346;28;20479;-62
2023/06/13 04:38:39;;;;;;;11.82;7.32;;;16.20;67.80;;;;;;5003689;28;20073;-62
2023/06/13 04:41:11;;;;;;;12.70;7.40;;;16.30;67.70;;;;;;5029787;28;20072;-63
2023/06/13 04:43:38;;;;;;;11.48;7.30;;;16.30;68.80;;;;;;5033142;28;20036;-62
2023/06/13 04:46:04;;;;;;;10.38;7.60;;;16.20;69.70;;;;;;5018052;28;20042;-64
2023/06/13 04:48:30;;;;;;;11.30;7.60;;;16.20;71.90;;;;;;5023858;28;20457;-63
2023/06/13 04:50:59;;;;;;;11.05;7.93;;;16.20;71.70;;;;;;5031278;28;20042;-62
2023/06/13 04:53:28;;;;;;;12.98;7.82;;;16.30;74.70;;;;;;5019488;28;20060;-63
2023/06/13 04:55:55;;;;;;;12.68;7.32;;;16.30;73.40;;;;;;5025157;28;20046;-62
2023/06/13 04:58:23;;;;;;;12.55;7.30;;;16.40;73.00;;;;;;5029469;28;20041;-63
2023/06/13 05:00:50;;;;;;;11.15;7.65;;;16.40;72.50;;;;;;5034210;28;20049;-63
2023/06/13 05:03:20;;;;;;;12.43;7.15;;;16.50;73.10;;;;;;5032306;28;20087;-63
2023/06/13 05:05:46;;;;;;;11.52;6.75;;;16.50;72.80;;;;;;5025963;28;20099;-62
2023/06/13 05:08:14;;;;;;;13.02;7.53;;;16.70;72.90;;;;;;5032116;28;20032;-62
2023/06/13 05:10:41;;;;;;;16.15;7.68;;;16.70;72.20;;;;;;5026735;28;20061;-63
2023/06/13 05:13:07;;;;;;;10.98;7.03;;;16.80;72.60;;;;;;5032187;28;20047;-63
2023/06/13 05:15:33;;;;;;;14.90;7.45;;;16.90;72.80;;;;;;5030314;28;20037;-63
2023/06/13 05:17:58;;;;;;;13.52;7.15;;;16.90;72.90;;;;;;5033975;28;20040;-62
2023/06/13 05:20:26;;;;;;;9.85;7.00;;;17.00;73.80;;;;;;5018480;28;20061;-62
2023/06/13 05:22:52;;;;;;;11.95;6.85;;;17.10;73.40;;;;;;5024248;28;20061;-62
2023/06/13 05:25:19;;;;;;;11.73;6.53;;;17.10;73.20;;;;;;5025131;28;20030;-62
2023/06/13 05:27:45;;;;;;;10.98;6.65;;;17.20;72.10;;;;;;5024336;28;20079;-62
2023/06/13 05:30:11;;;;;;;16.08;6.88;;;17.30;71.60;;;;;;5023471;28;20124;-62
2023/06/13 05:32:37;;;;;;;11.07;6.47;;;17.40;72.20;;;;;;5033306;28;20056;-63
2023/06/13 05:35:03;;;;;;;7.95;5.95;;;17.50;72.30;;;;;;5033036;28;20052;-63
2023/06/13 05:37:29;;;;;;;12.38;6.43;;;17.60;70.50;;;;;;5027466;28;20496;-62
2023/06/13 05:39:55;;;;;;;12.13;6.20;;;17.60;69.00;;;;;;5033432;28;20542;-62
2023/06/13 05:42:22;;;;;;;9.32;6.50;;;17.70;69.10;;;;;;5033462;28;20123;-63
2023/06/13 05:44:47;;;;;;;10.73;5.90;;;17.80;68.50;;;;;;5006970;28;20061;-62
2023/06/13 05:47:13;;;;;;;10.45;6.35;;;17.80;67.90;;;;;;5016713;28;20065;-62
2023/06/13 05:49:38;;;;;;;10.30;5.97;;;17.90;68.10;;;;;;5020878;28;20042;-64
2023/06/13 05:52:04;;;;;;;10.77;6.45;;;17.90;67.30;;;;;;5019202;28;20056;-63
2023/06/13 05:54:32;;;;;;;9.45;6.00;;;18.00;66.40;;;;;;5010935;28;20046;-64
2023/06/13 05:56:59;;;;;;;11.88;6.10;;;18.10;65.90;;;;;;5020963;28;20071;-63
2023/06/13 05:59:24;;;;;;;13.38;6.72;;;18.10;65.90;;;;;;5020095;28;20092;-63
2023/06/13 06:01:50;;;;;;;13.95;6.15;;;18.10;65.60;;;;;;5006214;28;20434;-62
2023/06/13 06:04:16;;;;;;;9.43;6.40;;;18.20;65.60;;;;;;5022493;28;20060;-62
2023/06/13 06:06:41;;;;;;;10.88;5.60;;;18.20;66.00;;;;;;5027753;28;20076;-63
2023/06/13 06:09:08;;;;;;;16.15;6.25;;;18.30;65.20;;;;;;5032977;28;20380;-62
2023/06/13 06:11:35;;;;;;;9.35;5.82;;;18.40;65.20;;;;;;5023475;28;20414;-63
2023/06/13 06:14:00;;;;;;;13.38;6.20;;;18.40;65.10;;;;;;5027833;28;20041;-62
2023/06/13 06:16:26;;;;;;;10.48;6.20;;;18.40;63.80;;;;;;5033042;28;20049;-63
2023/06/13 06:18:53;;;;;;;9.05;6.50;;;18.50;64.30;;;;;;5018321;28;20037;-63
2023/06/13 06:21:19;;;;;;;14.38;6.93;;;18.60;63.80;;;;;;5011043;28;20483;-62
2023/06/13 06:23:45;;;;;;;12.18;6.50;;;18.60;64.00;;;;;;5031991;28;20092;-62
2023/06/13 06:26:11;;;;;;;7.78;6.20;;;18.70;64.10;;;;;;5026425;28;20498;-63
2023/06/13 06:28:38;;;;;;;11.00;5.88;;;18.80;63.60;;;;;;5024782;28;20381;-63
2023/06/13 06:31:05;;;;;;;11.15;6.32;;;18.80;63.60;;;;;;5032116;28;20060;-62
2023/06/13 06:33:31;;;;;;;12.75;5.97;;;18.90;64.00;;;;;;5029393;28;20498;-62
2023/06/13 06:35:57;;;;;;;16.75;6.63;;;19.00;63.80;;;;;;5013377;28;20124;-64
2023/06/13 06:38:22;;;;;;;7.68;5.93;;;19.00;63.10;;;;;;5019188;28;20042;-63
2023/06/13 06:40:48;;;;;;;11.93;6.03;;;19.10;62.80;;;;;;5026392;28;20068;-63
2023/06/13 06:43:13;;;;;;;10.20;5.95;;;19.20;62.80;;;;;;5032031;28;20407;-62
2023/06/13 06:45:39;;;;;;;12.23;6.15;;;19.20;62.10;;;;;;5033202;22;20046;-65
2023/06/13 06:48:05;;;;;;;10.30;6.07;;;19.30;62.50;;;;;;5023806;28;20475;-64
2023/06/13 06:50:30;;;;;;;8.70;6.25;;;19.40;62.70;;;;;;5027628;28;20049;-65
2023/06/13 06:52:56;;;;;;;8.32;6.20;;;19.50;62.70;;;;;;5024500;28;20041;-67
2023/06/13 06:55:21;;;;;;;16.77;6.57;;;19.60;62.60;;;;;;5031317;28;20099;-65
2023/06/13 06:57:47;;;;;;;12.23;6.50;;;19.60;62.90;;;;;;5031391;28;20487;-64
2023/06/13 07:00:14;;;;;;;10.02;7.38;;;19.70;62.20;;;;;;5024836;28;20045;-65
2023/06/13 07:02:43;;;;;;;9.73;6.20;;;19.80;62.50;;;;;;5021747;28;20037;-65
2023/06/13 07:05:09;;;;;;;8.95;6.47;;;19.80;61.70;;;;;;5025076;28;20040;-65
2023/06/13 07:07:35;;;;;;;12.02;6.07;;;19.90;62.30;;;;;;5020767;28;20056;-65
2023/06/13 07:10:02;;;;;;;9.18;6.20;;;20.10;62.60;;;;;;4997968;28;20314;-64
2023/06/13 07:12:28;;;;;;;9.73;6.63;;;20.10;61.80;;;;;;5029483;28;20072;-64
2023/06/13 07:14:53;;;;;;;7.80;5.70;;;20.20;62.30;;;;;;5031617;28;20042;-65
2023/06/13 07:17:19;;;;;;;7.63;5.90;;;20.30;61.60;;;;;;5027036;28;20499;-64
2023/06/13 07:19:45;;;;;;;10.40;6.05;;;20.30;61.80;;;;;;5023726;28;20025;-64
2023/06/13 07:22:10;;;;;;;11.52;6.00;;;20.40;61.90;;;;;;5031182;28;20112;-64
2023/06/13 07:24:36;;;;;;;13.48;6.40;;;20.60;62.20;;;;;;5019215;28;20037;-64
2023/06/13 07:27:02;;;;;;;11.57;6.40;;;20.60;61.70;;;;;;5017880;28;20069;-65
2023/06/13 07:29:27;;;;;;;10.50;6.18;;;20.60;61.90;;;;;;5031203;28;20033;-65
2023/06/13 07:31:53;;;;;;;10.75;7.07;;;20.70;62.80;;;;;;5031671;28;20044;-65
2023/06/13 07:34:18;;;;;;;9.70;6.63;;;20.80;63.00;;;;;;5005917;28;20041;-64
2023/06/13 07:36:44;;;;;;;9.13;7.03;;;20.80;63.20;;;;;;5018844;28;20045;-64
2023/06/13 07:39:12;;;;;;;8.88;6.38;;;20.80;64.20;;;;;;5019548;28;20131;-65
2023/06/13 07:41:37;;;;;;;11.43;6.30;;;20.80;64.00;;;;;;5019980;28;20052;-64
2023/06/13 07:44:05;;;;;;;8.63;6.78;;;20.90;63.70;;;;;;5023462;28;20037;-64
2023/06/13 07:46:30;;;;;;;13.23;7.30;;;20.90;62.50;;;;;;5029229;28;20513;-65
2023/06/13 07:48:56;;;;;;;9.18;6.70;;;20.90;62.50;;;;;;5029194;28;20029;-65
2023/06/13 07:51:22;;;;;;;12.32;7.40;;;21.00;63.30;;;;;;5030087;28;20034;-65
2023/06/13 07:53:47;;;;;;;15.68;7.32;;;21.10;63.30;;;;;;5018104;28;20033;-66
2023/06/13 07:56:13;;;;;;;13.68;7.65;;;21.10;62.30;;;;;;5009499;28;20099;-65
2023/06/13 07:58:39;;;;;;;10.00;7.43;;;21.10;62.00;;;;;;5016658;28;20037;-66
2023/06/13 08:01:04;;;;;;;10.40;6.80;;;21.20;62.60;;;;;;5022035;28;20037;-66
2023/06/13 08:03:30;;;;;;;8.85;6.90;;;21.20;62.90;;;;;;5019677;28;20659;-65
2023/06/13 08:05:56;;;;;;;8.63;6.82;;;21.20;62.40;;;;;;5012358;28;20041;-65
2023/06/13 08:08:21;;;;;;;11.80;7.22;;;21.30;61.80;;;;;;5018550;28;20500;-64
2023/06/13 08:10:47;;;;;;;12.10;7.03;;;21.40;61.90;;;;;;5010588;28;21852;-66
2023/06/13 08:13:13;;;;;;;27.60;7.97;;;21.40;62.00;;;;;;5015390;28;20042;-66
2023/06/13 08:15:38;;;;;;;11.98;7.28;;;21.50;61.20;;;;;;5025255;28;20404;-66
2023/06/13 08:18:04;;;;;;;12.35;7.32;;;21.50;61.20;;;;;;5029034;28;20065;-65
2023/06/13 08:20:30;;;;;;;10.23;7.50;;;21.50;60.80;;;;;;5034137;28;20409;-65
2023/06/13 08:22:56;;;;;;;12.65;7.53;;;21.60;60.60;;;;;;5022050;28;20124;-65
2023/06/13 08:25:22;;;;;;;10.82;7.47;;;21.60;59.70;;;;;;5034624;28;20033;-65
2023/06/13 08:27:49;;;;;;;11.52;7.80;;;21.80;60.30;;;;;;5034385;28;20398;-65
2023/06/13 08:30:15;;;;;;;9.15;6.97;;;21.90;59.50;;;;;;5014003;28;20095;-65
2023/06/13 08:32:41;;;;;;;16.08;7.53;;;22.00;59.10;;;;;;5004272;28;20555;-65
2023/06/13 08:35:07;;;;;;;11.13;7.32;;;22.10;58.80;;;;;;5012027;28;20662;-65
2023/06/13 08:37:33;;;;;;;10.35;7.03;;;22.10;59.00;;;;;;5026990;28;20045;-65
2023/06/13 08:39:58;;;;;;;12.18;7.03;;;22.30;59.20;;;;;;5034731;28;20069;-65
2023/06/13 08:42:25;;;;;;;15.25;8.10;;;22.40;58.70;;;;;;5034796;28;20407;-66
2023/06/13 08:44:51;;;;;;;11.95;7.00;;;22.60;58.10;;;;;;5015674;28;20040;-65
2023/06/13 08:47:18;;;;;;;14.85;7.10;;;22.70;58.30;;;;;;5022664;28;20076;-64
2023/06/13 08:49:48;;;;;;;10.15;7.72;;;22.90;57.80;;;;;;5013855;28;20037;-66
2023/06/13 08:52:17;;;;;;;10.32;6.63;;;22.90;57.10;;;;;;5029215;28;20072;-66
2023/06/13 08:54:44;;;;;;;10.13;7.13;;;23.20;56.80;;;;;;5034221;28;20079;-65
2023/06/13 08:57:15;;;;;;;10.45;6.63;;;23.20;55.80;;;;;;5030641;28;20041;-65
2023/06/13 08:59:44;;;;;;;13.55;6.97;;;23.30;55.00;;;;;;5021779;28;20044;-66
2023/06/13 09:02:13;;;;;;;15.73;6.60;;;23.40;55.60;;;;;;5042051;28;20033;-66
2023/06/13 09:04:39;;;;;;;11.10;6.35;;;23.50;55.20;;;;;;5020970;28;20034;-65
2023/06/13 09:07:06;;;;;;;8.98;6.13;;;23.60;55.10;;;;;;5020467;28;20029;-65
2023/06/13 09:09:34;;;;;;;10.02;6.50;;;23.80;55.00;;;;;;5033869;28;20044;-65
2023/06/13 09:12:01;;;;;;;10.27;6.05;;;23.90;55.00;;;;;;5030453;28;20041;-66
2023/06/13 09:14:27;;;;;;;7.50;5.95;;;24.00;53.60;;;;;;5024266;28;20412;-64
2023/06/13 09:16:56;;;;;;;12.98;6.50;;;24.20;54.60;;;;;;5022869;28;20051;-66
2023/06/13 09:19:22;;;;;;;13.90;6.20;;;24.30;54.40;;;;;;5030736;28;20414;-65
2023/06/13 09:21:47;;;;;;;8.48;6.55;;;24.30;53.90;;;;;;5030158;28;20033;-65
2023/06/13 09:24:14;;;;;;;17.65;6.65;;;24.30;53.20;;;;;;5013344;28;20241;-66
2023/06/13 09:26:40;;;;;;;8.35;6.40;;;24.50;53.00;;;;;;5020746;28;20030;-66
2023/06/13 09:29:08;;;;;;;11.40;6.60;;;24.40;52.20;;;;;;5020314;28;20204;-66
2023/06/13 09:31:38;;;;;;;16.83;6.15;;;24.50;52.60;;;;;;5032800;28;20033;-66
2023/06/13 09:34:06;;;;;;;12.40;5.53;;;24.70;52.80;;;;;;5033452;28;20041;-66
2023/06/13 09:36:35;;;;;;;9.88;6.22;;;24.70;52.90;;;;;;5028791;28;20041;-66
2023/06/13 09:39:03;;;;;;;10.32;5.45;;;24.80;52.90;;;;;;5021916;28;20045;-66
2023/06/13 09:41:31;;;;;;;10.45;6.35;;;24.90;52.10;;;;;;5030603;28;20483;-66
2023/06/13 09:44:01;;;;;;;10.85;6.10;;;24.90;52.60;;;;;;5033354;28;20462;-65
2023/06/13 09:46:28;;;;;;;27.30;7.03;;;25.10;52.50;;;;;;5033065;28;20083;-65
2023/06/13 09:48:53;;;;;;;9.98;5.60;;;25.20;52.10;;;;;;5024492;28;20025;-66
2023/06/13 09:51:21;;;;;;;16.52;5.90;;;25.20;51.20;;;;;;5029465;28;20419;-65
2023/06/13 09:53:47;;;;;;;9.52;5.63;;;25.20;51.90;;;;;;5029882;28;20087;-66
2023/06/13 09:56:13;;;;;;;9.63;5.43;;;25.30;51.80;;;;;;5014853;28;20479;-65
2023/06/13 09:58:39;;;;;;;6.70;5.40;;;25.30;51.20;;;;;;5032914;28;20033;-66
2023/06/13 10:01:10;;;;;;;11.45;6.15;;;25.40;51.70;;;;;;5032803;28;20112;-65
2023/06/13 10:03:36;;;;;;;;;;;25.60;52.30;;;;;;5004851;28;20378;-66
2023/06/13 10:06:01;;;;;;;10.25;5.35;;;25.70;48.50;;;;;;5020366;28;19940;-66
2023/06/13 10:08:27;;;;;;;7.85;5.65;;;25.70;50.50;;;;;;5032505;28;20037;-65
2023/06/13 10:10:54;;;;;;;14.30;6.05;;;25.80;50.40;;;;;;5026030;28;20411;-66
2023/06/13 10:13:24;;;;;;;10.50;6.70;;;25.90;50.80;;;;;;5026789;28;20083;-66
2023/06/13 10:15:57;;;;;;;7.60;6.22;;;25.90;48.10;;;;;;5033058;28;20059;-66
2023/06/13 10:18:30;;;;;;;14.00;5.97;;;26.00;48.30;;;;;;5032873;28;20523;-66
2023/06/13 10:20:57;;;;;;;9.77;5.60;;;26.10;49.10;;;;;;5019804;28;20117;-65
2023/06/13 10:23:28;;;;;;;7.43;5.70;;;26.20;48.50;;;;;;5022643;28;20052;-65
2023/06/13 10:26:00;;;;;;;12.18;5.63;;;26.40;49.00;;;;;;5032006;28;20037;-66
2023/06/13 10:28:55;;;;;;;6.40;5.53;;;26.50;48.90;;;;;;5018989;28;20061;-66
2023/06/13 10:31:58;;;;;;;8.18;5.90;;;26.50;47.90;;;;;;5028362;28;20037;-65
2023/06/13 10:34:45;;;;;;;9.02;5.35;;;26.50;46.50;;;;;;5012472;28;20040;-65
2023/06/13 10:37:13;;;;;;;13.20;6.22;;;26.60;48.50;;;;;;5016292;28;20083;-66
2023/06/13 10:40:04;;;;;;;12.52;6.53;;;26.70;48.60;;;;;;5023610;28;20048;-66
2023/06/13 10:42:43;;;;;;;9.27;6.60;;;26.50;45.30;;;;;;5032221;28;20037;-66
2023/06/13 10:45:15;;;;;;;8.57;6.63;;;26.50;45.90;;;;;;5026446;28;20037;-65
2023/06/13 10:47:40;;;;;;;8.63;5.38;;;26.60;46.50;;;;;;5024085;28;20075;-66
2023/06/13 10:50:08;;;;;;;10.02;6.30;;;26.70;46.10;;;;;;5032198;28;20077;-66
2023/06/13 10:52:34;;;;;;;6.93;5.65;;;26.70;45.40;;;;;;5028899;28;20079;-66
2023/06/13 10:55:01;;;;;;;8.85;6.43;;;26.80;46.10;;;;;;5022995;28;20041;-66
2023/06/13 10:57:53;;;;;;;9.23;6.78;;;27.10;47.00;;;;;;5031558;28;20214;-66
2023/06/13 11:00:30;;;;;;;10.02;6.50;;;27.00;43.90;;;;;;5029504;28;20108;-65
2023/06/13 11:03:07;;;;;;;7.20;5.80;;;27.20;45.60;;;;;;5028954;28;20455;-65
2023/06/13 11:05:33;;;;;;;9.00;6.15;;;27.40;44.20;;;;;;5031294;28;20113;-66
2023/06/13 11:07:59;;;;;;;9.88;6.03;;;27.30;43.60;;;;;;5032034;28;20037;-65
2023/06/13 11:10:25;;;;;;;7.93;5.57;;;27.40;44.70;;;;;;5026836;28;20052;-66
2023/06/13 11:12:54;;;;;;;11.35;6.50;;;27.50;45.30;;;;;;5018137;28;20029;-66
2023/06/13 11:15:24;;;;;;;8.88;6.30;;;27.50;43.40;;;;;;5028341;28;20040;-65
2023/06/13 11:18:08;;;;;;;7.15;5.80;;;27.40;44.20;;;;;;5014473;28;20484;-66
2023/06/13 11:20:57;;;;;;;8.43;5.75;;;27.50;41.20;;;;;;5026365;28;20034;-66
2023/06/13 11:23:35;;;;;;;7.70;6.20;;;27.60;42.30;;;;;;5026938;28;20037;-65
2023/06/13 11:26:01;;;;;;;17.65;6.10;;;27.60;43.20;;;;;;5030517;28;20116;-65
2023/06/13 11:28:26;;;;;;;9.40;5.90;;;27.60;44.50;;;;;;5029754;28;20132;-66
2023/06/13 11:30:52;;;;;;;9.73;6.03;;;27.70;44.40;;;;;;5021391;28;20048;-66
2023/06/13 11:33:19;;;;;;;11.43;5.63;;;27.80;44.20;;;;;;5024528;28;20057;-65
2023/06/13 11:35:49;;;;;;;7.68;5.75;;;27.90;44.20;;;;;;5017175;28;20041;-66
2023/06/13 11:38:24;;;;;;;11.57;5.90;;;28.00;42.80;;;;;;5028777;28;20132;-66
2023/06/13 11:40:58;;;;;;;10.15;6.10;;;28.20;43.90;;;;;;5021420;28;20040;-65
2023/06/13 11:43:25;;;;;;;7.88;5.60;;;28.30;43.30;;;;;;5051642;28;20071;-66
2023/06/13 11:45:57;;;;;;;12.05;5.38;;;28.30;43.60;;;;;;5026648;28;20080;-66
2023/06/13 11:48:24;;;;;;;8.25;5.80;;;28.40;43.10;;;;;;5033209;28;20068;-66
2023/06/13 11:50:50;;;;;;;8.35;5.32;;;28.20;42.30;;;;;;5031484;28;20087;-66
2023/06/13 11:53:16;;;;;;;7.55;5.30;;;28.30;43.80;;;;;;5030407;28;20499;-65
2023/06/13 11:55:42;;;;;;;10.75;5.80;;;28.00;43.70;;;;;;5029724;28;20128;-65
2023/06/13 11:58:07;;;;;;;8.98;5.85;;;27.80;42.20;;;;;;5022140;28;20116;-66
2023/06/13 12:00:56;;;;;;;6.90;5.57;;;28.00;43.10;;;;;;5014877;28;20706;-65
2023/06/13 12:03:23;;;;;;;6.72;5.57;;;28.20;41.00;;;;;;5012635;28;20034;-65
2023/06/13 12:05:50;;;;;;;7.93;5.60;;;28.30;42.60;;;;;;5023427;28;20037;-66
2023/06/13 12:08:16;;;;;;;8.45;5.80;;;28.40;43.10;;;;;;5017636;28;20400;-66
2023/06/13 12:10:46;;;;;;;9.27;5.60;;;28.60;43.40;;;;;;5027243;28;20049;-66
2023/06/13 12:13:15;;;;;;;7.43;5.33;;;28.60;42.50;;;;;;5031187;28;20052;-66
2023/06/13 12:15:41;;;;;;;8.68;5.95;;;28.60;42.40;;;;;;5030790;28;20264;-65
2023/06/13 12:18:06;;;;;;;12.95;5.88;;;28.70;42.40;;;;;;5025756;28;20512;-66
2023/06/13 12:20:45;;;;;;;11.57;6.32;;;28.80;42.30;;;;;;5022213;28;20510;-66
2023/06/13 12:23:11;;;;;;;9.43;6.25;;;29.00;42.50;;;;;;5031212;28;20088;-66
2023/06/13 12:25:37;;;;;;;7.93;5.55;;;29.00;42.00;;;;;;5015331;28;20492;-66
2023/06/13 12:28:03;;;;;;;9.02;5.50;;;29.20;42.20;;;;;;5024984;28;20072;-67
2023/06/13 12:30:41;;;;;;;8.90;5.53;;;29.20;42.80;;;;;;5031087;28;20041;-66
2023/06/13 12:33:07;;;;;;;8.55;5.45;;;29.40;41.90;;;;;;5021458;28;20112;-66
2023/06/13 12:35:33;;;;;;;16.40;5.47;;;29.50;42.10;;;;;;5027056;28;20072;-66
2023/06/13 12:38:02;;;;;;;8.48;5.75;;;29.30;40.90;;;;;;5026531;28;20075;-66
2023/06/13 12:40:35;;;;;;;16.33;6.07;;;29.30;41.70;;;;;;5011636;28;20034;-66
2023/06/13 12:43:04;;;;;;;8.50;5.57;;;29.20;40.90;;;;;;5016918;28;20042;-65
2023/06/13 12:45:31;;;;;;;8.05;5.90;;;29.10;41.20;;;;;;5020421;28;20128;-64